Accueil
METAR-TAF:

METAR-TAF

Aéroports :

Rota, Espagne

latitude: 36-39N, longitude: 006-21W, altitude: 26 m

Observation

Le bulletin a été fait il y a 27 minutes, à 10:00 UTC
Vent 7 kt de sud/sud-ouest, variant entre sud/sud-est et ouest/sud-ouest
Température 20°C
Humidité 68%
Pression 1019 hPa
Visibilité 10 km ou plus
Quelques nuages à une hauteur de 2900 ft

METAR: LERT 191000Z 20007KT 150V240 9999 FEW029 20/14 Q1019 NOSIG

Heure: 12:27 (10:27 UTC)

Prévision

Le bulletin a été fait il y a 2 heures et 27 minutes, à 08:00 UTC
Prévision valable du 19 à 09 UTC au 20 à 09 UTC
Vent 8 kt de sud-est
Visibilité 10 km ou plus
Quelques nuages à une hauteur de 3000 ft
Evoluant progressivement
du 19 à 10 UTC au 19 à 12 UTC
Vent 10 kt de ouest/sud-ouest

TAF: LERT 190800Z 1909/2009 14008KT 9999 FEW030 TX22/1913Z TN13/2006Z BECMG 1910/1912 25010KT

Observations et prévisions météorologiques de plus de 4000 aéroports (messages METAR et TAF).

Les stations disponibles sont représentées par des disques jaunes et rouges sur la carte.

Passer la souris dessus pour voir le nom de la station.

Cliquer dessus pour voir les observations et prévisions météorologiques.

Pour changer de carte: cliquez sur les boutons verts avec une croix noire pour zoomer, sur le bouton vert avec un tiret pour effectuer un zoom arrière, ou sur les flèches vertes pour les cartes adjacentes.


METAR-TAF: